Home > Products > Valid Products > TAF

000
FTUS41 KBGM 260529
TAFELM
TAF
KELM 260529Z 2606/2706 VRB03KT P6SM SCT250
     FM261600 22007KT P6SM SCT050 BKN100=



000
FTUS41 KBGM 260529
TAFAVP
TAF
KAVP 260529Z 2606/2706 VRB03KT P6SM FEW250
     FM261500 22005KT P6SM SCT120
     FM262100 22007KT P6SM SCT050 BKN100=



000
FTUS41 KBGM 260529
TAFSYR
TAF
KSYR 260529Z 2606/2706 VRB03KT P6SM SCT250
     FM261800 21007KT P6SM SCT050 BKN100=



000
FTUS41 KBGM 260529
TAFITH
TAF
KITH 260529Z 2606/2706 VRB03KT P6SM SCT250
     FM261300 18005KT P6SM SCT100
     FM261600 19007KT P6SM SCT045 BKN100=



000
FTUS41 KBGM 260529
TAFBGM
TAF
KBGM 260529Z 2606/2706 VRB03KT P6SM SCT250
     FM261400 20005KT P6SM SCT100
     FM261700 20008KT P6SM SCT045 BKN100=



000
FTUS41 KBGM 252320
TAFBGM
TAF
KBGM 252320Z 2600/2624 VRB03KT P6SM SCT250
     FM261400 20005KT P6SM SCT100
     FM261700 20008KT P6SM SCT045 BKN100=



000
FTUS41 KBGM 252320
TAFSYR
TAF
KSYR 252320Z 2600/2624 28004KT P6SM SCT080
     FM260200 VRB03KT P6SM SCT250
     FM261800 21007KT P6SM SCT050 BKN100=



000
FTUS41 KBGM 252320
TAFITH
TAF
KITH 252320Z 2600/2624 31003KT P6SM SCT080
     FM260200 VRB03KT P6SM SCT250
     FM261300 18005KT P6SM SCT100
     FM261600 19007KT P6SM SCT045 BKN100=



000
FTUS41 KBGM 252320
TAFELM
TAF
KELM 252320Z 2600/2624 VRB03KT P6SM SCT250
     FM261600 22007KT P6SM SCT050 BKN100=



000
FTUS41 KBGM 252320
TAFAVP
TAF
KAVP 252320Z 2600/2624 VRB03KT P6SM FEW250
     FM261500 22005KT P6SM SCT120
     FM262100 22007KT P6SM SCT050 BKN100=



000
FTUS41 KBGM 251120
TAFSYR
TAF
KSYR 251120Z 2512/2612 23004KT P6SM SCT250
     FM251600 27008KT P6SM SCT250
     FM260400 00000KT P6SM SCT250=



000
FTUS41 KBGM 251120
TAFBGM
TAF
KBGM 251120Z 2512/2612 25004KT P6SM FEW250
     FM251700 28008KT P6SM SCT250
     FM260800 00000KT P6SM SCT250=



000
FTUS41 KBGM 251120
TAFAVP
TAF
KAVP 251120Z 2512/2612 25004KT P6SM FEW250
     FM251700 27008KT P6SM FEW250
     FM260800 00000KT P6SM FEW250=



000
FTUS41 KBGM 251120
TAFITH
TAF
KITH 251120Z 2512/2612 VRB03KT P6SM FEW200
     FM251500 28007KT P6SM SCT250
     FM260300 00000KT P6SM SCT250=



000
FTUS41 KBGM 251120
TAFELM
TAF
KELM 251120Z 2512/2612 25004KT P6SM FEW250
     FM251500 29008KT P6SM FEW250
     FM260800 00000KT P6SM FEW250=



000
FTUS41 KBGM 242008 AAA
TAFSYR
TAF AMD
KSYR 242008Z 2420/2518 30013KT P6SM FEW250
     FM250000 29005KT P6SM FEW250
     FM251600 27008KT P6SM SCT250=



000
FTUS41 KBGM 241732
TAFELM
TAF
KELM 241732Z 2418/2518 34010KT P6SM FEW250
     FM250000 31005KT P6SM FEW250
     FM251600 26008KT P6SM SCT250=



000
FTUS41 KBGM 241732
TAFBGM
TAF
KBGM 241732Z 2418/2518 32010KT P6SM SCT250
     FM250000 32005KT P6SM FEW250=



000
FTUS41 KBGM 241732
TAFITH
TAF
KITH 241732Z 2418/2518 31010KT P6SM FEW250
     FM250000 31005KT P6SM FEW250
     FM251600 27008KT P6SM SCT250=



000
FTUS41 KBGM 241732
TAFAVP
TAF
KAVP 241732Z 2418/2518 33010KT P6SM SCT250
     FM250100 30005KT P6SM FEW250=



000
FTUS41 KBGM 241732
TAFSYR
TAF
KSYR 241732Z 2418/2518 30010KT P6SM FEW250
     FM250000 29005KT P6SM FEW250
     FM251600 27008KT P6SM SCT250=



000
FTUS41 KBGM 241120
TAFELM
TAF
KELM 241120Z 2412/2512 25005KT P6SM FEW250
     FM241500 32008KT P6SM FEW250
     FM250100 29004KT P6SM FEW250=



000
FTUS41 KBGM 241120
TAFSYR
TAF
KSYR 241120Z 2412/2512 00000KT P6SM FEW250
     FM241600 29008KT P6SM FEW250
     FM250100 27004KT P6SM FEW250=



000
FTUS41 KBGM 241120
TAFBGM
TAF
KBGM 241120Z 2412/2512 35005KT P6SM SCT250
     FM241600 32009KT P6SM FEW250
     FM250500 26005KT P6SM FEW250=



000
FTUS41 KBGM 241120
TAFITH
TAF
KITH 241120Z 2412/2512 00000KT P6SM FEW250
     FM241500 31008KT P6SM FEW250
     FM250100 30004KT P6SM FEW250
     FM250800 22004KT P6SM FEW250=



000
FTUS41 KBGM 241120
TAFAVP
TAF
KAVP 241120Z 2412/2512 00000KT P6SM SCT200
     FM241600 32007KT P6SM SCT250
     FM250200 26004KT P6SM FEW250=



000
FTUS41 KBGM 240517 AAA
TAFAVP
TAF AMD
KAVP 240517Z 2405/2424 VRB05KT P6SM BKN110
     FM240600 01005KT P6SM SCT200
     FM241200 30004KT P6SM SCT250
     FM241700 31010KT P6SM SCT250=



000
FTUS41 KBGM 232337
TAFBGM
TAF
KBGM 232337Z 2400/2424 35006KT P6SM SCT250
     FM241600 32008KT P6SM SCT250=



000
FTUS41 KBGM 232337
TAFITH
TAF
KITH 232337Z 2400/2424 36005KT P6SM SCT250
     FM241600 31009KT P6SM SKC=



000
FTUS41 KBGM 232337
TAFELM
TAF
KELM 232337Z 2400/2424 VRB06KT P6SM SCT250
     FM241500 32011KT P6SM SKC
     FM242300 31005KT P6SM SKC=



000
FTUS41 KBGM 232337
TAFSYR
TAF
KSYR 232337Z 2400/2424 32006KT P6SM SCT250
     FM240300 00000KT P6SM SKC
     FM241600 30010KT P6SM SKC=



000
FTUS41 KBGM 232337
TAFAVP
TAF
KAVP 232337Z 2400/2424 VRB05KT P6SM BKN110
     FM240600 01005KT 5SM BR SCT200
      TEMPO 2408/2412 2SM BR
     FM241200 30004KT P6SM SCT250
     FM241700 31010KT P6SM SCT250=



    US Dept of Commerce
    National Oceanic and Atmospheric Administration
    National Weather Service
    1325 East West Highway
    Silver Spring, MD 20910
    Page Author: NWS Internet Services Team
Disclaimer
Information Quality
Credits
Glossary
Privacy Policy
Freedom of Information Act (FOIA)
About Us
Career Opportunities